Time;durP1;ratioP1;P1;durP2;ratioP2;P2;SDS_P1;SDS_P2;PMS_P1;PMS_P2;Temp;Humidity;BMP_temperature;BMP_pressure;BME280_temperature;BME280_humidity;BME280_pressure;Samples;Min_cycle;Max_cycle;Signal;HPM_P1;HPM_P2
2023/07/21 04:22:33;;;;;;;3.92;2.50;;;;;;;15.05;99.49;99684.41;5109652;27;20361;-67
2023/07/21 04:24:59;;;;;;;3.97;2.70;;;;;;;15.14;99.51;99678.59;5109826;28;20477;-67
2023/07/21 04:27:28;;;;;;;5.20;2.60;;;;;;;15.20;98.42;99683.09;5108698;28;20089;-69
2023/07/21 04:29:55;;;;;;;3.65;2.50;;;;;;;15.27;97.54;99684.91;5108104;28;20035;-66
2023/07/21 04:32:20;;;;;;;5.18;2.20;;;;;;;15.20;98.85;99691.13;5108431;28;20189;-66
2023/07/21 04:34:46;;;;;;;6.53;2.53;;;;;;;15.30;98.21;99692.50;5108385;28;20040;-66
2023/07/21 04:37:13;;;;;;;3.60;2.35;;;;;;;15.30;98.13;99687.97;5108215;28;20492;-66
2023/07/21 04:39:41;;;;;;;6.93;3.78;;;;;;;15.41;97.55;99692.63;5109345;28;20446;-68
2023/07/21 04:42:11;;;;;;;12.73;5.82;;;;;;;15.49;96.22;99691.53;5109603;28;20035;-66
2023/07/21 04:44:37;;;;;;;22.45;11.07;;;;;;;15.49;96.44;99702.28;5104557;28;20040;-67
2023/07/21 04:47:06;;;;;;;11.75;6.30;;;;;;;15.60;95.96;99700.75;5107971;28;20495;-70
2023/07/21 04:49:39;;;;;;;18.25;10.73;;;;;;;15.67;95.98;99698.88;5126671;28;20032;-66
2023/07/21 04:52:05;;;;;;;13.57;7.53;;;;;;;15.70;95.25;99699.22;5128509;28;20073;-68
2023/07/21 04:54:30;;;;;;;11.88;6.05;;;;;;;15.76;94.04;99694.84;5115678;27;20040;-62
2023/07/21 04:56:56;;;;;;;9.20;4.10;;;;;;;15.84;91.61;99699.94;5087489;28;20127;-60
2023/07/21 04:59:21;;;;;;;6.43;3.88;;;;;;;15.89;91.18;99697.41;5087341;28;20044;-63
2023/07/21 05:01:47;;;;;;;7.03;3.55;;;;;;;15.93;94.24;99700.50;5087584;28;20078;-62
2023/07/21 05:04:19;;;;;;;6.22;3.72;;;;;;;16.04;92.51;99694.41;5101724;28;20217;-61
2023/07/21 05:06:48;;;;;;;4.28;2.70;;;;;;;16.14;92.42;99697.38;5087459;28;20713;-60
2023/07/21 05:09:14;;;;;;;4.00;2.40;;;;;;;16.20;90.42;99701.03;5087090;28;20044;-62
2023/07/21 05:11:41;;;;;;;5.50;2.53;;;;;;;16.24;90.17;99704.94;5087334;28;20020;-61
2023/07/21 05:14:06;;;;;;;7.20;3.08;;;;;;;16.34;89.00;99705.22;5087239;28;20028;-60
2023/07/21 05:16:47;;;;;;;3.95;2.30;;;;;;;16.42;87.72;99701.41;5088446;28;20505;-61
2023/07/21 05:19:39;;;;;;;3.47;2.50;;;;;;;16.43;86.41;99703.06;5087450;28;20059;-61
2023/07/21 05:22:15;;;;;;;4.87;2.40;;;;;;;16.38;83.63;99695.69;5088585;28;20044;-61
2023/07/21 05:24:59;;;;;;;2.85;2.00;;;;;;;16.50;81.31;99710.03;5088471;28;20055;-62
2023/07/21 05:27:25;;;;;;;3.20;2.38;;;;;;;16.57;82.70;99712.63;5087023;28;20428;-60
2023/07/21 05:29:55;;;;;;;4.00;2.40;;;;;;;16.49;81.24;99700.28;5086700;28;20044;-60
2023/07/21 05:32:21;;;;;;;3.25;1.80;;;;;;;16.63;80.10;99703.66;5082086;28;20517;-61
2023/07/21 05:34:55;;;;;;;5.30;2.20;;;;;;;16.70;81.88;99715.19;5073376;28;20032;-61
2023/07/21 05:37:20;;;;;;;4.18;1.90;;;;;;;16.77;85.01;99717.78;5073277;28;20036;-60
2023/07/21 05:39:48;;;;;;;5.75;3.72;;;;;;;16.81;86.36;99710.88;5072963;28;20037;-61
2023/07/21 05:42:17;;;;;;;3.13;2.03;;;;;;;16.75;87.78;99711.78;5073380;28;20083;-61
2023/07/21 05:44:46;;;;;;;6.25;2.42;;;;;;;16.74;84.95;99704.78;5073330;28;20516;-61
2023/07/21 05:47:13;;;;;;;3.33;2.10;;;;;;;16.71;86.59;99703.38;5073084;28;20497;-61
2023/07/21 05:49:39;;;;;;;4.35;2.17;;;;;;;16.74;85.40;99702.09;5073028;28;20043;-62
2023/07/21 05:52:06;;;;;;;3.13;1.90;;;;;;;16.66;85.35;99699.69;5073119;28;20098;-61
2023/07/21 05:54:37;;;;;;;4.55;2.28;;;;;;;16.74;85.26;99694.03;5073383;28;20447;-60
2023/07/21 05:57:04;;;;;;;4.83;2.53;;;;;;;16.79;84.36;99692.31;5073023;28;20128;-60
2023/07/21 05:59:34;;;;;;;3.15;2.13;;;;;;;16.89;85.13;99702.53;5072698;28;20350;-62
2023/07/21 06:02:00;;;;;;;3.85;2.00;;;;;;;16.96;84.83;99703.25;5072881;28;20124;-59
2023/07/21 06:04:30;;;;;;;2.97;2.00;;;;;;;17.06;83.07;99708.06;5072888;28;20067;-60
2023/07/21 06:07:13;;;;;;;5.25;2.10;;;;;;;17.15;81.78;99711.25;5072586;28;20033;-62
2023/07/21 06:09:49;;;;;;;3.47;2.07;;;;;;;17.23;81.32;99717.16;5072484;28;20036;-62
2023/07/21 06:12:30;;;;;;;6.53;2.20;;;;;;;17.28;81.87;99716.47;5072774;28;20043;-60
2023/07/21 06:15:24;;;;;;;5.03;2.25;;;;;;;17.32;80.55;99723.03;5072636;28;20037;-62
2023/07/21 06:17:57;;;;;;;4.75;2.30;;;;;;;17.36;79.47;99727.72;5072536;28;20033;-62
2023/07/21 06:20:24;;;;;;;5.80;2.47;;;;;;;17.44;79.30;99726.56;5072101;28;20043;-60
2023/07/21 06:22:51;;;;;;;5.93;2.60;;;;;;;17.48;78.96;99724.25;5072698;28;20155;-59
2023/07/21 06:25:18;;;;;;;2.65;1.88;;;;;;;17.53;79.93;99724.34;5072496;28;20040;-60
2023/07/21 06:27:46;;;;;;;9.85;2.28;;;;;;;17.56;80.52;99716.66;5072497;28;20043;-60
2023/07/21 06:30:14;;;;;;;4.32;2.10;;;;;;;17.63;78.06;99722.75;5072025;28;20093;-59
2023/07/21 06:32:43;;;;;;;4.28;1.88;;;;;;;17.72;78.13;99733.22;5072268;28;20090;-61
2023/07/21 06:35:35;;;;;;;3.63;2.08;;;;;;;17.81;74.29;99729.97;5072277;28;20106;-60
2023/07/21 06:38:24;;;;;;;4.50;2.00;;;;;;;17.88;73.07;99719.88;5070153;28;20053;-61
2023/07/21 06:41:05;;;;;;;6.18;2.90;;;;;;;18.06;70.82;99728.88;5072219;28;20047;-60
2023/07/21 06:43:53;;;;;;;4.40;2.30;;;;;;;18.11;71.04;99721.75;5069432;28;20102;-61
2023/07/21 06:46:37;;;;;;;4.70;2.05;;;;;;;18.14;69.95;99721.28;5072591;28;20627;-59
2023/07/21 06:49:14;;;;;;;6.53;2.42;;;;;;;18.20;70.91;99714.16;5071785;28;20124;-61
2023/07/21 06:52:03;;;;;;;5.05;2.28;;;;;;;18.30;70.36;99716.22;5070121;28;20060;-62
2023/07/21 06:54:30;;;;;;;3.95;1.90;;;;;;;18.33;72.05;99716.59;5071891;28;20063;-62
2023/07/21 06:56:58;;;;;;;5.32;2.40;;;;;;;18.45;68.39;99716.53;5073114;28;20039;-61
2023/07/21 06:59:24;;;;;;;8.98;2.72;;;;;;;18.52;68.32;99724.50;5072874;28;20033;-60
2023/07/21 07:01:50;;;;;;;5.70;1.80;;;;;;;18.63;66.95;99718.28;5071791;28;20037;-62
2023/07/21 07:04:17;;;;;;;6.07;2.00;;;;;;;18.74;65.83;99711.25;5073178;28;20390;-61
2023/07/21 07:06:43;;;;;;;3.05;1.77;;;;;;;18.89;65.03;99714.25;5073135;28;20036;-62
2023/07/21 07:09:08;;;;;;;2.85;1.88;;;;;;;18.94;63.08;99711.66;5071426;28;20044;-62
2023/07/21 07:11:34;;;;;;;3.80;1.90;;;;;;;19.07;62.04;99707.84;5071678;28;20127;-58
2023/07/21 07:14:00;;;;;;;4.13;1.70;;;;;;;19.23;62.04;99713.28;5072943;28;20117;-61
2023/07/21 07:16:26;;;;;;;3.92;1.70;;;;;;;19.40;61.37;99712.47;5072650;28;20115;-60
2023/07/21 07:18:51;;;;;;;4.47;1.95;;;;;;;19.49;59.74;99711.00;5072469;28;20040;-62
2023/07/21 07:21:17;;;;;;;5.53;1.83;;;;;;;19.59;58.98;99718.50;5072630;28;20194;-60
2023/07/21 07:23:42;;;;;;;2.80;1.90;;;;;;;19.66;57.67;99716.47;5072653;28;20048;-60
2023/07/21 07:26:07;;;;;;;3.65;1.80;;;;;;;19.74;59.02;99719.56;5071315;28;20040;-61
2023/07/21 07:28:33;;;;;;;3.05;1.58;;;;;;;19.86;61.28;99721.38;5071071;28;20047;-61
2023/07/21 07:31:06;;;;;;;4.82;1.75;;;;;;;20.08;60.91;99719.53;5072558;28;20490;-61
2023/07/21 07:33:32;;;;;;;4.40;1.83;;;;;;;20.27;59.08;99712.78;5072533;28;20612;-61
2023/07/21 07:35:59;;;;;;;4.32;1.90;;;;;;;20.32;55.69;99715.56;5072373;28;20071;-62
2023/07/21 07:38:27;;;;;;;2.78;1.60;;;;;;;20.35;56.64;99716.16;5072181;28;20047;-62
2023/07/21 07:40:52;;;;;;;;;;;;;;;20.42;56.93;99720.28;5072749;28;20032;-60
2023/07/21 07:43:18;;;;;;;3.55;1.95;;;;;;;20.47;58.60;99724.97;5072354;28;20357;-61
2023/07/21 07:45:43;;;;;;;4.50;1.95;;;;;;;20.51;57.11;99726.94;5072048;28;20040;-62
2023/07/21 07:48:09;;;;;;;6.68;2.20;;;;;;;20.58;57.44;99721.34;5072177;28;20044;-61
2023/07/21 07:50:42;;;;;;;2.63;1.70;;;;;;;20.65;58.13;99727.38;5071897;28;20548;-60
2023/07/21 07:53:08;;;;;;;1.75;1.40;;;;;;;20.72;56.82;99725.28;5054272;28;20036;-62
2023/07/21 07:55:41;;;;;;;3.67;2.00;;;;;;;20.82;55.66;99732.72;5071833;28;20040;-60
2023/07/21 07:58:08;;;;;;;5.72;1.70;;;;;;;20.90;56.94;99726.03;5072007;28;20043;-61
2023/07/21 08:00:38;;;;;;;5.30;1.92;;;;;;;20.99;58.08;99733.44;5071806;28;20026;-61
2023/07/21 08:03:04;;;;;;;4.57;2.03;;;;;;;21.06;56.60;99720.56;5072066;28;20036;-61
2023/07/21 08:05:31;;;;;;;3.35;1.55;;;;;;;21.12;55.71;99726.81;5071852;28;20037;-62
2023/07/21 08:07:58;;;;;;;4.70;1.92;;;;;;;21.25;57.54;99725.59;5071991;28;20519;-59
2023/07/21 08:10:27;;;;;;;7.65;2.22;;;;;;;21.30;56.41;99729.22;5071467;28;20045;-63
2023/07/21 08:12:54;;;;;;;5.60;1.55;;;;;;;21.56;58.29;99722.13;5071868;28;20067;-61
2023/07/21 08:15:19;;;;;;;3.45;1.67;;;;;;;21.60;55.50;99719.75;5071681;28;20040;-59
2023/07/21 08:17:44;;;;;;;3.95;1.73;;;;;;;21.78;55.48;99713.94;5071881;28;20047;-60
2023/07/21 08:20:10;;;;;;;3.55;1.60;;;;;;;21.90;54.81;99711.81;5071391;28;20075;-60
2023/07/21 08:22:36;;;;;;;2.72;1.70;;;;;;;22.03;54.31;99713.25;5071918;28;20036;-60
2023/07/21 08:25:01;;;;;;;3.40;1.50;;;;;;;22.11;53.14;99715.53;5071784;28;20115;-61
2023/07/21 08:27:27;;;;;;;3.45;1.70;;;;;;;22.26;51.65;99717.53;5071673;28;20489;-61
2023/07/21 08:29:53;;;;;;;2.30;1.60;;;;;;;22.46;54.09;99722.25;5071386;28;20040;-61
2023/07/21 08:32:19;;;;;;;4.97;1.73;;;;;;;22.62;54.32;99723.91;5071627;28;20040;-61
2023/07/21 08:34:45;;;;;;;2.72;1.63;;;;;;;22.84;47.82;99722.94;5071718;28;20041;-61
2023/07/21 08:37:12;;;;;;;2.85;1.50;;;;;;;22.79;46.97;99712.88;5071605;28;20056;-61
2023/07/21 08:39:37;;;;;;;6.20;1.75;;;;;;;22.93;48.78;99724.06;5071534;28;20039;-59
2023/07/21 08:42:08;;;;;;;3.15;1.48;;;;;;;22.93;48.32;99716.75;5071632;28;20495;-62
2023/07/21 08:44:34;;;;;;;3.88;1.48;;;;;;;23.03;47.15;99726.84;5071953;28;20029;-60
2023/07/21 08:47:00;;;;;;;4.20;1.30;;;;;;;22.97;46.08;99719.75;5071703;28;20037;-61
2023/07/21 08:49:26;;;;;;;2.97;1.52;;;;;;;23.01;45.91;99726.25;5071335;28;20485;-62
2023/07/21 08:51:51;;;;;;;3.30;1.48;;;;;;;22.96;46.59;99727.09;5071494;28;20039;-60
2023/07/21 08:54:16;;;;;;;2.63;1.60;;;;;;;22.93;46.64;99726.78;5071503;28;20036;-61
2023/07/21 08:56:42;;;;;;;3.53;1.70;;;;;;;22.80;45.71;99710.97;5071913;28;20033;-62
2023/07/21 08:59:08;;;;;;;2.55;1.40;;;;;;;22.90;46.38;99722.72;5071204;28;20490;-62
2023/07/21 09:01:33;;;;;;;2.67;1.52;;;;;;;22.90;45.04;99721.91;5071492;28;20044;-62
2023/07/21 09:03:58;;;;;;;2.47;1.50;;;;;;;23.00;45.06;99728.16;5071447;28;20039;-61
2023/07/21 09:06:24;;;;;;;2.70;1.67;;;;;;;23.07;45.48;99727.09;5071436;28;20045;-61
2023/07/21 09:08:52;;;;;;;3.35;1.70;;;;;;;23.16;44.91;99730.94;5073972;28;20481;-61
2023/07/21 09:11:18;;;;;;;2.83;1.17;;;;;;;23.39;45.12;99724.16;5075004;28;20082;-60
2023/07/21 09:13:51;;;;;;;3.45;1.75;;;;;;;23.55;42.56;99728.56;5074988;28;20440;-60
2023/07/21 09:16:19;;;;;;;2.88;1.20;;;;;;;23.93;42.93;99713.63;5074948;28;20046;-60
2023/07/21 09:18:46;;;;;;;3.83;1.60;;;;;;;24.16;41.54;99717.66;5074776;28;20401;-59
2023/07/21 09:21:20;;;;;;;2.63;1.27;;;;;;;24.34;42.57;99725.25;5074886;28;20063;-62
2023/07/21 09:23:46;;;;;;;1.98;1.25;;;;;;;24.48;42.33;99730.13;5074744;28;20355;-60
2023/07/21 09:26:15;;;;;;;4.18;1.80;;;;;;;24.61;41.96;99724.88;5074808;28;20071;-61
2023/07/21 09:28:42;;;;;;;1.90;1.30;;;;;;;25.01;42.72;99720.34;5074474;28;20064;-60
2023/07/21 09:31:08;;;;;;;;;;;;;;;25.04;39.58;99721.69;5075128;28;20036;-61
2023/07/21 09:33:38;;;;;;;2.95;1.50;;;;;;;25.51;41.14;99718.41;5074816;28;19912;-61
2023/07/21 09:36:08;;;;;;;3.22;1.20;;;;;;;25.46;39.47;99710.28;5074576;28;20079;-61
2023/07/21 09:38:35;;;;;;;2.67;1.30;;;;;;;25.33;42.01;99706.28;5074419;28;20090;-60
2023/07/21 09:41:02;;;;;;;2.17;1.38;;;;;;;25.22;40.01;99723.78;5074806;28;20024;-60
2023/07/21 09:43:28;;;;;;;;;;;;;;;25.02;41.06;99718.44;5073549;28;20032;-59
2023/07/21 09:45:54;;;;;;;3.38;1.40;;;;;;;24.93;41.61;99715.50;5074371;28;19969;-61
2023/07/21 09:48:21;;;;;;;1.83;1.38;;;;;;;25.12;41.18;99726.59;5074272;28;20490;-63
2023/07/21 09:50:47;;;;;;;1.70;1.40;;;;;;;25.52;45.07;99711.84;5074272;28;20036;-60
2023/07/21 09:53:20;;;;;;;2.00;1.42;;;;;;;25.76;41.09;99711.97;5074472;28;20036;-60
2023/07/21 09:55:48;;;;;;;2.00;1.30;;;;;;;25.98;40.07;99706.84;5074378;28;20051;-61
2023/07/21 09:58:16;;;;;;;3.17;1.67;;;;;;;25.95;40.50;99709.31;5074441;28;20032;-62
2023/07/21 10:00:44;;;;;;;5.93;1.55;;;;;;;25.93;41.43;99700.63;5074128;28;20393;-59
2023/07/21 10:03:11;;;;;;;2.42;1.52;;;;;;;26.01;40.26;99708.16;5078810;28;20039;-61
2023/07/21 10:05:38;;;;;;;3.88;2.08;;;;;;;25.99;42.06;99704.91;5083370;28;20035;-60
2023/07/21 10:08:05;;;;;;;3.42;1.42;;;;;;;26.06;39.95;99704.59;5081900;28;20464;-61
2023/07/21 10:10:31;;;;;;;5.30;1.48;;;;;;;25.99;41.54;99710.38;5082879;28;20032;-61
2023/07/21 10:13:03;;;;;;;1.92;1.27;;;;;;;25.80;41.55;99718.47;5083325;28;20032;-61
2023/07/21 10:15:31;;;;;;;1.83;1.40;;;;;;;25.83;40.52;99708.91;5082088;28;20108;-61
2023/07/21 10:17:57;;;;;;;2.28;1.33;;;;;;;25.76;41.07;99705.72;5082513;28;20491;-61
2023/07/21 10:20:56;;;;;;;5.85;1.77;;;;;;;25.55;40.45;99700.38;5083175;28;20031;-63
2023/07/21 10:23:34;;;;;;;4.13;1.58;;;;;;;25.53;41.59;99702.56;5060569;28;20084;-62
2023/07/21 10:26:04;;;;;;;1.95;1.30;;;;;;;25.32;41.04;99706.56;5083183;28;20029;-62
2023/07/21 10:28:30;;;;;;;2.35;1.48;;;;;;;25.49;41.85;99712.41;5081791;28;20197;-61
2023/07/21 10:31:24;;;;;;;2.78;1.50;;;;;;;25.42;40.98;99706.47;5079967;28;20540;-62
2023/07/21 10:34:12;;;;;;;2.55;1.48;;;;;;;25.53;41.92;99708.03;5075983;28;20047;-61
2023/07/21 10:36:47;;;;;;;3.45;1.45;;;;;;;25.60;39.78;99713.97;5081788;28;20103;-61
2023/07/21 10:39:16;;;;;;;3.83;1.63;;;;;;;25.46;40.43;99718.44;5081943;28;20038;-62
2023/07/21 10:41:43;;;;;;;4.72;1.17;;;;;;;25.48;40.88;99716.25;5083672;28;20039;-61
2023/07/21 10:44:09;;;;;;;2.73;1.40;;;;;;;25.64;41.40;99719.69;5083820;28;20060;-61
2023/07/21 10:46:39;;;;;;;3.45;1.13;;;;;;;25.49;38.96;99727.97;5082121;28;20231;-61
2023/07/21 10:49:06;;;;;;;2.17;1.10;;;;;;;25.26;40.84;99726.78;5082920;28;20040;-61
2023/07/21 10:51:32;;;;;;;3.40;1.70;;;;;;;25.05;40.78;99729.63;5081164;28;20040;-58
2023/07/21 10:53:57;;;;;;;2.35;1.30;;;;;;;24.94;39.72;99728.00;5073563;28;20501;-60
2023/07/21 10:56:23;;;;;;;2.35;1.40;;;;;;;24.92;40.92;99729.41;5073113;28;20044;-60
2023/07/21 10:58:49;;;;;;;3.25;1.60;;;;;;;24.76;40.93;99715.03;5072923;28;20036;-61
2023/07/21 11:01:20;;;;;;;2.35;1.30;;;;;;;24.79;41.29;99725.38;5073348;28;20062;-59
2023/07/21 11:03:46;;;;;;;2.47;1.35;;;;;;;24.71;42.41;99720.47;5073342;28;20048;-61
2023/07/21 11:06:12;;;;;;;1.95;1.20;;;;;;;24.89;42.04;99722.56;5085676;28;20035;-61
2023/07/21 11:08:38;;;;;;;2.22;1.48;;;;;;;25.07;40.77;99721.97;5093624;28;20122;-60
2023/07/21 11:11:03;;;;;;;1.40;1.05;;;;;;;24.98;40.76;99718.19;5093282;28;20044;-61
2023/07/21 11:13:29;;;;;;;2.65;1.25;;;;;;;24.78;40.99;99726.47;5093195;28;20046;-60
2023/07/21 11:15:55;;;;;;;2.47;1.38;;;;;;;24.67;42.14;99731.13;5093014;28;20048;-61
2023/07/21 11:18:22;;;;;;;3.42;1.40;;;;;;;24.49;41.46;99732.56;5092754;28;20127;-61
2023/07/21 11:20:51;;;;;;;1.98;1.35;;;;;;;24.38;41.78;99738.28;5092844;28;20036;-62
2023/07/21 11:23:17;;;;;;;2.28;1.30;;;;;;;24.32;42.76;99738.31;5092911;28;20500;-62
2023/07/21 11:26:09;;;;;;;2.13;1.25;;;;;;;24.15;43.29;99732.34;5092858;28;20044;-61
2023/07/21 11:28:37;;;;;;;2.38;1.55;;;;;;;24.10;43.38;99735.88;5092578;28;20610;-61
2023/07/21 11:31:09;;;;;;;3.20;1.38;;;;;;;24.04;43.55;99728.00;5092215;28;20032;-63
2023/07/21 11:33:46;;;;;;;1.92;1.00;;;;;;;24.13;44.15;99734.53;5092808;28;20044;-62
2023/07/21 11:36:21;;;;;;;1.58;1.20;;;;;;;24.17;43.21;99742.94;5092824;28;20393;-61
2023/07/21 11:38:59;;;;;;;3.22;1.30;;;;;;;24.35;42.40;99742.41;5092577;28;20097;-63
2023/07/21 11:41:46;;;;;;;2.17;1.27;;;;;;;24.63;43.21;99739.03;5092937;28;20036;-63
2023/07/21 11:44:16;;;;;;;3.13;1.90;;;;;;;24.64;44.29;99740.66;5091436;28;20024;-61
2023/07/21 11:46:42;;;;;;;2.75;1.40;;;;;;;24.95;41.62;99739.72;5092605;28;20154;-62
2023/07/21 11:49:14;;;;;;;5.45;1.80;;;;;;;25.03;40.63;99748.09;5092308;28;20064;-62
2023/07/21 11:52:03;;;;;;;2.35;1.60;;;;;;;24.62;41.15;99753.75;5092407;28;20044;-63
2023/07/21 11:54:39;;;;;;;1.65;1.00;;;;;;;24.69;41.07;99755.34;5092501;28;20036;-61
2023/07/21 11:57:05;;;;;;;2.95;1.35;;;;;;;24.17;42.61;99751.91;5092559;28;20040;-61
2023/07/21 11:59:31;;;;;;;2.38;1.55;;;;;;;24.16;41.63;99752.19;5092139;28;20032;-61
2023/07/21 12:01:56;;;;;;;1.75;1.20;;;;;;;23.97;42.58;99758.19;5092365;28;20093;-61
2023/07/21 12:04:23;;;;;;;1.58;1.13;;;;;;;23.89;42.01;99760.66;5091267;28;20194;-62
2023/07/21 12:06:49;;;;;;;2.33;1.42;;;;;;;23.64;43.10;99770.44;5092248;28;20378;-59
2023/07/21 12:09:16;;;;;;;2.17;1.23;;;;;;;23.59;43.10;99766.88;5092001;28;20036;-62
2023/07/21 12:11:42;;;;;;;2.38;1.20;;;;;;;23.56;43.21;99768.22;5092178;28;20044;-63
2023/07/21 12:14:08;;;;;;;2.40;1.30;;;;;;;23.29;44.18;99771.19;5092291;28;20481;-60
2023/07/21 12:16:34;;;;;;;2.88;1.73;;;;;;;23.13;46.63;99780.34;5091895;28;20065;-61
2023/07/21 12:19:00;;;;;;;2.20;1.30;;;;;;;22.85;47.66;99785.13;5091855;28;20036;-62
2023/07/21 12:21:26;;;;;;;1.92;1.27;;;;;;;22.74;47.30;99784.25;5091983;28;20442;-62
2023/07/21 12:23:52;;;;;;;3.65;1.30;;;;;;;22.57;48.14;99782.81;5092202;28;20042;-60
2023/07/21 12:26:19;;;;;;;2.72;1.70;;;;;;;22.46;48.15;99790.88;5090954;28;20043;-60
2023/07/21 12:28:45;;;;;;;2.58;1.25;;;;;;;22.35;47.63;99767.47;5091720;28;20035;-62
2023/07/21 12:31:11;;;;;;;2.45;1.40;;;;;;;22.32;47.03;99795.16;5091965;28;20044;-63
2023/07/21 12:33:39;;;;;;;3.33;1.83;;;;;;;22.17;46.87;99795.06;5092194;28;20119;-62
2023/07/21 12:36:05;;;;;;;3.97;1.08;;;;;;;22.17;48.12;99800.47;5091948;28;20510;-62
2023/07/21 12:38:31;;;;;;;2.15;1.35;;;;;;;22.03;48.51;99810.06;5091707;28;20123;-62
2023/07/21 12:40:56;;;;;;;2.25;1.35;;;;;;;21.79;50.50;99813.13;5092054;28;20044;-60
2023/07/21 12:43:21;;;;;;;3.15;1.70;;;;;;;21.77;52.12;99811.75;5094280;28;20642;-61
2023/07/21 12:45:47;;;;;;;3.65;1.38;;;;;;;21.58;54.00;99820.25;5095968;28;20040;-62
2023/07/21 12:48:12;;;;;;;2.75;1.50;;;;;;;21.47;54.40;99826.66;5096179;28;20050;-62
2023/07/21 12:50:38;;;;;;;3.00;1.50;;;;;;;21.38;54.61;99820.84;5095671;28;20040;-63
2023/07/21 12:53:03;;;;;;;2.00;1.20;;;;;;;21.27;54.87;99831.81;5094832;28;20047;-60
2023/07/21 12:55:28;;;;;;;2.38;1.35;;;;;;;21.26;56.54;99836.41;5095781;28;20042;-62
2023/07/21 12:57:54;;;;;;;3.53;1.20;;;;;;;21.22;57.33;99840.69;5095869;28;20059;-62
2023/07/21 13:00:20;;;;;;;2.50;1.50;;;;;;;21.17;56.75;99840.63;5095451;28;20405;-61
2023/07/21 13:02:46;;;;;;;1.95;1.17;;;;;;;21.12;59.01;99840.53;5095760;28;20028;-61
2023/07/21 13:05:11;;;;;;;4.25;1.40;;;;;;;21.10;59.74;99845.41;5095566;28;20489;-62
2023/07/21 13:07:39;;;;;;;2.50;1.55;;;;;;;21.03;61.18;99844.78;5095628;28;20067;-61
2023/07/21 13:10:05;;;;;;;;;;;;;;;20.92;59.96;99849.22;5095771;28;20036;-61
2023/07/21 13:12:30;;;;;;;1.70;1.02;;;;;;;20.88;63.58;99852.72;5095414;28;19916;-62
2023/07/21 13:14:55;;;;;;;1.70;1.27;;;;;;;20.82;67.16;99860.75;5095487;28;20092;-63
2023/07/21 13:17:21;;;;;;;1.92;1.38;;;;;;;20.61;70.35;99860.72;5095416;28;20504;-59
2023/07/21 13:19:48;;;;;;;2.88;1.60;;;;;;;20.48;73.21;99865.41;5095125;28;20036;-60
2023/07/21 13:22:13;;;;;;;2.85;1.52;;;;;;;20.31;75.95;99865.38;5095315;28;20032;-60
2023/07/21 13:24:39;;;;;;;3.22;1.35;;;;;;;20.05;78.48;99863.31;5093871;28;20050;-60
2023/07/21 13:27:04;;;;;;;3.63;1.30;;;;;;;19.95;77.92;99872.09;5095198;28;20040;-60
2023/07/21 13:29:30;;;;;;;5.13;1.58;;;;;;;19.87;80.60;99866.22;5094952;28;20040;-62
2023/07/21 13:31:55;;;;;;;3.08;1.48;;;;;;;19.81;82.71;99880.72;5095102;28;20056;-61
2023/07/21 13:34:20;;;;;;;2.05;1.30;;;;;;;19.76;79.75;99881.47;5093914;28;20040;-61
2023/07/21 13:36:46;;;;;;;3.10;1.30;;;;;;;19.65;81.56;99895.84;5095033;28;20036;-61
2023/07/21 13:39:11;;;;;;;2.55;1.30;;;;;;;19.63;80.31;99897.97;5094591;28;20040;-61
2023/07/21 13:41:38;;;;;;;2.97;1.58;;;;;;;19.42;84.73;99894.81;5094979;28;20135;-61
2023/07/21 13:44:03;;;;;;;3.20;1.63;;;;;;;19.24;86.84;99895.00;5094863;28;20559;-62
2023/07/21 13:46:29;;;;;;;3.42;1.63;;;;;;;19.17;87.56;99900.53;5094570;28;20071;-62
2023/07/21 13:48:56;;;;;;;2.80;1.40;;;;;;;18.94;90.91;99889.75;5088659;28;20448;-61
2023/07/21 13:51:22;;;;;;;4.22;1.73;;;;;;;18.89;94.05;99895.84;5074306;28;20036;-62
2023/07/21 13:53:48;;;;;;;3.03;2.20;;;;;;;18.87;93.83;99887.19;5073915;28;20044;-58
2023/07/21 13:56:14;;;;;;;4.05;2.05;;;;;;;19.03;96.05;99896.41;5074448;28;20520;-60
2023/07/21 13:58:40;;;;;;;3.17;1.60;;;;;;;19.38;95.47;99893.66;5073979;28;20127;-60
2023/07/21 14:01:06;;;;;;;3.33;1.80;;;;;;;19.61;92.43;99881.16;5074333;28;20032;-61
2023/07/21 14:03:31;;;;;;;4.97;1.60;;;;;;;19.96;88.87;99879.13;5074548;28;20033;-62
2023/07/21 14:05:57;;;;;;;4.00;1.60;;;;;;;20.05;86.61;99882.25;5074078;28;20048;-58
2023/07/21 14:08:23;;;;;;;1.80;1.33;;;;;;;20.14;85.15;99874.53;5073898;28;20094;-60
2023/07/21 14:10:49;;;;;;;1.90;1.45;;;;;;;20.36;86.85;99878.16;5073895;28;20041;-61
2023/07/21 14:13:15;;;;;;;1.90;1.58;;;;;;;20.16;82.10;99875.94;5073858;28;20044;-61
2023/07/21 14:15:40;;;;;;;3.25;1.75;;;;;;;20.25;83.90;99863.66;5073846;28;20043;-60
2023/07/21 14:18:06;;;;;;;3.05;1.52;;;;;;;20.31;81.94;99861.84;5073854;28;20170;-61
2023/07/21 14:20:34;;;;;;;2.85;1.52;;;;;;;20.33;80.90;99873.22;5073535;28;20037;-62
2023/07/21 14:22:59;;;;;;;5.43;1.98;;;;;;;20.59;81.88;99869.06;5073893;28;20401;-62
2023/07/21 14:25:25;;;;;;;2.22;1.40;;;;;;;20.64;78.51;99879.97;5072541;28;20097;-62
2023/07/21 14:27:50;;;;;;;2.25;1.48;;;;;;;20.71;77.90;99877.91;5072500;28;20048;-60
2023/07/21 14:30:16;;;;;;;2.30;1.65;;;;;;;20.69;75.65;99873.81;5074129;28;20048;-58
2023/07/21 14:32:42;;;;;;;3.92;1.42;;;;;;;20.71;76.21;99875.19;5076998;28;20077;-64
2023/07/21 14:35:11;;;;;;;2.90;1.73;;;;;;;20.79;77.60;99874.75;5074916;28;20132;-61
2023/07/21 14:37:37;;;;;;;2.38;1.75;;;;;;;20.62;76.95;99882.13;5073480;28;20539;-62
2023/07/21 14:40:10;;;;;;;3.47;1.70;;;;;;;20.77;76.35;99878.81;5073264;28;20052;-62
2023/07/21 14:42:39;;;;;;;2.35;1.40;;;;;;;20.90;75.16;99888.47;5073426;28;20489;-60
2023/07/21 14:45:07;;;;;;;7.57;2.35;;;;;;;20.99;78.69;99871.53;5073340;28;20036;-58
2023/07/21 14:47:32;;;;;;;2.58;1.40;;;;;;;21.11;75.01;99876.81;5073443;28;20516;-60
2023/07/21 14:49:58;;;;;;;2.72;1.90;;;;;;;21.03;75.43;99888.91;5073215;28;20068;-62
2023/07/21 14:52:24;;;;;;;3.55;1.60;;;;;;;21.14;74.70;99876.34;5073137;28;20029;-63
2023/07/21 14:54:49;;;;;;;2.15;1.50;;;;;;;20.90;73.65;99880.34;5073177;28;20490;-62
2023/07/21 14:57:14;;;;;;;3.50;1.75;;;;;;;20.91;73.62;99876.56;5073053;28;20047;-62
2023/07/21 14:59:40;;;;;;;2.17;1.60;;;;;;;20.74;74.42;99873.91;5072941;28;20524;-61
2023/07/21 15:02:11;;;;;;;1.98;1.40;;;;;;;20.84;77.03;99879.44;5073033;28;20041;-62
2023/07/21 15:04:37;;;;;;;2.30;1.70;;;;;;;20.95;74.73;99870.41;5072668;28;20472;-60
2023/07/21 15:07:02;;;;;;;2.50;1.40;;;;;;;21.14;76.35;99869.03;5072431;28;20040;-61
2023/07/21 15:09:30;;;;;;;4.10;1.63;;;;;;;21.36;75.07;99882.59;5072557;28;20077;-62
2023/07/21 15:11:55;;;;;;;2.00;1.35;;;;;;;21.48;75.44;99874.34;5072783;28;20182;-61
2023/07/21 15:14:21;;;;;;;2.97;1.80;;;;;;;21.43;72.79;99870.75;5072807;28;20040;-61
2023/07/21 15:16:46;;;;;;;4.55;1.58;;;;;;;21.40;71.49;99875.59;5072614;28;20044;-61
2023/07/21 15:19:12;;;;;;;2.47;1.35;;;;;;;21.34;70.56;99879.31;5072445;28;20059;-60
2023/07/21 15:21:39;;;;;;;2.13;1.40;;;;;;;21.12;71.20;99875.75;5072632;28;20516;-61
2023/07/21 15:24:05;;;;;;;2.15;1.73;;;;;;;20.92;71.94;99876.31;5072562;28;20032;-62
2023/07/21 15:26:31;;;;;;;1.90;1.65;;;;;;;20.99;72.73;99863.41;5072631;28;20418;-63
2023/07/21 15:28:56;;;;;;;2.97;1.70;;;;;;;20.96;73.23;99865.81;5071029;28;20129;-62
2023/07/21 15:31:21;;;;;;;2.00;1.70;;;;;;;20.90;72.56;99872.22;5072480;28;20045;-62
2023/07/21 15:33:47;;;;;;;3.70;1.58;;;;;;;20.91;72.77;99858.44;5072444;28;20040;-63
2023/07/21 15:36:13;;;;;;;1.67;1.40;;;;;;;20.96;73.18;99863.91;5072351;28;20060;-62
2023/07/21 15:38:38;;;;;;;2.63;1.30;;;;;;;20.95;70.83;99867.69;5072346;28;20497;-62
2023/07/21 15:41:04;;;;;;;2.78;1.67;;;;;;;21.07;73.49;99875.72;5072455;28;20696;-62
2023/07/21 15:43:29;;;;;;;3.92;1.88;;;;;;;20.91;71.66;99869.25;5072364;28;20044;-62
2023/07/21 15:45:55;;;;;;;3.33;1.80;;;;;;;20.90;71.70;99877.63;5072191;28;20043;-61
2023/07/21 15:48:20;;;;;;;2.40;1.40;;;;;;;20.74;72.61;99874.72;5072239;28;20127;-61
2023/07/21 15:50:46;;;;;;;2.92;1.60;;;;;;;20.72;72.28;99874.13;5072094;28;20392;-62
2023/07/21 15:53:11;;;;;;;3.47;1.70;;;;;;;20.74;74.24;99873.91;5072038;28;20043;-61
2023/07/21 15:55:37;;;;;;;2.72;1.73;;;;;;;20.74;74.29;99880.13;5072227;28;20052;-61
2023/07/21 15:58:02;;;;;;;2.50;1.63;;;;;;;20.78;72.34;99870.44;5072248;28;20076;-56
2023/07/21 16:00:28;;;;;;;2.28;1.52;;;;;;;20.81;71.58;99867.25;5081754;28;20075;-61